Collinsville, Illinois
Current Conditions -  °F | °C
As of 5:58 AM on Tuesday 27 Jan 2015 (Local Time) from KBLV Reporting Station
Clear Clear  
Wind Chill: 27°   Ceiling: Unl
Heat Index: 32°   Visibility: 10mi
Dew Point: 32°   Wind: 5mph
Humidity: 99%   Direction: 320°NW
Pressure: 30.01"   Gusts: NA
Location:  38.67°N, 89.98°W
Report Text: KBLV 271158Z AUTO 32004KT 10SM CLR 00/00 A3001 RMK AO2 SLP170 T00001001 10016 21004 52025
Loading
Personal Weather Stations






























Interactive Weather Map New forecast layout! Learn more

10-Day Weather Forecast

Advertisements
Track Severe Weather on mobile